createdAt,value
2019-02-20T00:01:45.652Z,11.25
2019-02-20T00:04:14.782Z,13.55
2019-02-20T00:06:43.964Z,16.37
2019-02-20T00:09:13.115Z,10.72
2019-02-20T00:11:42.332Z,12.20
2019-02-20T00:14:11.472Z,14.35
2019-02-20T00:16:40.613Z,9.70
2019-02-20T00:19:09.760Z,13.30
2019-02-20T00:21:38.894Z,14.20
2019-02-20T00:24:08.049Z,11.70
2019-02-20T00:26:37.224Z,11.85
2019-02-20T00:29:06.391Z,9.35
2019-02-20T00:31:35.532Z,14.47
2019-02-20T00:34:04.662Z,12.00
2019-02-20T00:36:33.837Z,13.98
2019-02-20T00:39:03.668Z,11.60
2019-02-20T00:41:32.873Z,8.58
2019-02-20T00:44:16.434Z,12.55
2019-02-20T00:47:07.358Z,14.03
2019-02-20T00:49:39.960Z,9.05
2019-02-20T00:52:31.162Z,15.60
2019-02-20T00:55:00.522Z,9.88
2019-02-20T00:57:29.605Z,8.00
2019-02-20T00:59:58.826Z,10.82
2019-02-20T01:02:27.977Z,11.80
2019-02-20T01:04:57.138Z,12.07
2019-02-20T01:07:26.321Z,14.93
2019-02-20T01:09:55.408Z,10.80
2019-02-20T01:12:24.535Z,8.80
2019-02-20T01:14:53.656Z,9.55
2019-02-20T01:17:22.798Z,8.70
2019-02-20T01:19:51.982Z,12.47
2019-02-20T01:22:21.092Z,11.85
2019-02-20T01:24:50.200Z,10.28
2019-02-20T01:27:19.401Z,15.13
2019-02-20T01:29:48.509Z,11.97
2019-02-20T01:32:17.657Z,8.65
2019-02-20T01:34:46.787Z,8.40
2019-02-20T01:37:15.931Z,13.00
2019-02-20T01:39:45.062Z,8.10
2019-02-20T01:42:14.199Z,9.48
2019-02-20T01:44:43.317Z,9.68
2019-02-20T01:47:12.473Z,10.70
2019-02-20T01:49:43.714Z,11.30
2019-02-20T01:52:12.469Z,9.38
2019-02-20T01:54:41.604Z,13.55
2019-02-20T01:57:10.718Z,9.78
2019-02-20T01:59:39.903Z,8.33
2019-02-20T02:02:09.035Z,9.73
2019-02-20T02:04:38.131Z,12.68
2019-02-20T02:07:07.312Z,7.10
2019-02-20T02:09:36.445Z,12.50
2019-02-20T02:12:05.660Z,8.30
2019-02-20T02:14:34.827Z,10.20
2019-02-20T02:17:04.134Z,6.65
2019-02-20T02:19:33.260Z,10.98
2019-02-20T02:22:02.454Z,12.95
2019-02-20T02:24:31.658Z,8.33
2019-02-20T02:27:00.804Z,11.22
2019-02-20T02:29:29.929Z,11.55
2019-02-20T02:31:59.051Z,19.30
2019-02-20T02:34:28.187Z,15.05
2019-02-20T02:36:57.337Z,11.50
2019-02-20T02:39:26.465Z,15.38
2019-02-20T02:41:55.589Z,10.10
2019-02-20T02:44:24.742Z,9.53
2019-02-20T02:46:53.896Z,7.83
2019-02-20T02:49:23.014Z,14.68
2019-02-20T02:51:52.185Z,10.05
2019-02-20T02:54:21.281Z,11.33
2019-02-20T02:56:50.421Z,12.03
2019-02-20T02:59:19.575Z,11.43
2019-02-20T03:01:48.715Z,12.35
2019-02-20T03:04:17.853Z,15.48
2019-02-20T03:06:47.023Z,10.10
2019-02-20T03:09:16.142Z,9.78
2019-02-20T03:11:45.309Z,11.85
2019-02-20T03:14:14.450Z,12.23
2019-02-20T03:16:43.597Z,12.05
2019-02-20T03:19:12.788Z,12.85
2019-02-20T03:21:41.957Z,6.35
2019-02-20T03:24:11.094Z,17.07
2019-02-20T03:26:40.215Z,16.67
2019-02-20T03:29:09.320Z,12.60
2019-02-20T03:31:38.487Z,15.90
2019-02-20T03:34:09.019Z,15.08
2019-02-20T03:36:38.250Z,12.93
2019-02-20T03:39:07.719Z,12.88
2019-02-20T03:41:36.858Z,12.55
2019-02-20T03:44:06.002Z,13.55
2019-02-20T03:46:35.197Z,11.85
2019-02-20T03:49:04.338Z,11.88
2019-02-20T03:51:33.447Z,23.12
2019-02-20T03:54:02.591Z,17.75
2019-02-20T03:56:31.720Z,24.25
2019-02-20T03:59:00.871Z,18.92
2019-02-20T04:01:30.397Z,18.87
2019-02-20T04:03:59.587Z,12.25
2019-02-20T04:06:28.743Z,13.32
2019-02-20T04:08:57.857Z,16.32
2019-02-20T04:11:27.027Z,17.75
2019-02-20T04:13:56.128Z,19.37
2019-02-20T04:16:25.275Z,19.12
2019-02-20T04:18:54.407Z,20.68
2019-02-20T04:21:23.560Z,16.95
2019-02-20T04:24:01.818Z,15.08
2019-02-20T04:26:23.602Z,15.85
2019-02-20T04:28:52.742Z,19.02
2019-02-20T04:31:21.886Z,17.87
2019-02-20T04:33:51.047Z,17.48
2019-02-20T04:36:20.170Z,23.62
2019-02-20T04:38:49.280Z,18.75
2019-02-20T04:41:18.436Z,18.80
2019-02-20T04:43:47.556Z,28.77
2019-02-20T04:46:16.757Z,20.92
2019-02-20T04:48:45.970Z,19.07
2019-02-20T04:51:15.139Z,19.45
2019-02-20T04:53:44.249Z,22.90
2019-02-20T04:56:13.366Z,17.30
2019-02-20T04:58:42.629Z,22.17
2019-02-20T05:01:11.765Z,22.48
2019-02-20T05:03:40.931Z,13.83
2019-02-20T05:06:10.090Z,21.23
2019-02-20T05:08:39.223Z,17.50
2019-02-20T05:11:08.363Z,24.65
2019-02-20T05:13:37.508Z,19.23
2019-02-20T05:16:06.651Z,28.27
2019-02-20T05:18:35.831Z,20.68
2019-02-20T05:21:04.985Z,26.17
2019-02-20T05:23:34.123Z,28.10
2019-02-20T05:26:03.258Z,18.87
2019-02-20T05:28:32.391Z,24.60
2019-02-20T05:31:01.526Z,17.82
2019-02-20T05:33:32.681Z,18.07
2019-02-20T05:36:01.820Z,14.23
2019-02-20T05:38:30.946Z,16.05
2019-02-20T05:41:00.077Z,24.37
2019-02-20T05:43:29.213Z,24.27
2019-02-20T05:45:58.344Z,17.45
2019-02-20T05:48:27.505Z,23.12
2019-02-20T05:50:56.704Z,21.82
2019-02-20T05:53:25.829Z,19.92
2019-02-20T05:55:54.984Z,15.75
2019-02-20T05:58:24.123Z,17.32
2019-02-20T06:00:53.411Z,22.42
2019-02-20T06:03:22.555Z,18.50
2019-02-20T06:05:51.722Z,21.65
2019-02-20T06:08:20.832Z,17.15
2019-02-20T06:10:49.983Z,23.18
2019-02-20T06:13:19.113Z,14.83
2019-02-20T06:15:48.275Z,18.50
2019-02-20T06:18:17.388Z,20.82
2019-02-20T06:20:46.535Z,17.87
2019-02-20T06:23:15.699Z,19.62
2019-02-20T06:25:44.843Z,21.93
2019-02-20T06:28:13.962Z,15.23
2019-02-20T06:30:43.165Z,25.30
2019-02-20T06:33:12.312Z,19.45
2019-02-20T06:35:41.458Z,14.15
2019-02-20T06:38:29.700Z,18.62
2019-02-20T06:40:58.848Z,21.12
2019-02-20T06:43:27.994Z,17.73
2019-02-20T06:45:57.106Z,18.70
2019-02-20T06:48:28.006Z,20.90
2019-02-20T06:50:57.143Z,18.27
2019-02-20T06:53:26.316Z,19.95
2019-02-20T06:55:55.452Z,20.62
2019-02-20T06:58:24.772Z,23.18
2019-02-20T07:00:54.261Z,16.75
2019-02-20T07:03:23.999Z,32.58
2019-02-20T07:06:24.096Z,16.40
2019-02-20T07:09:28.052Z,17.87
2019-02-20T07:12:48.603Z,16.12
2019-02-20T07:15:56.555Z,16.48
2019-02-20T07:18:47.253Z,21.87
2019-02-20T07:22:00.161Z,19.57
2019-02-20T07:25:13.333Z,14.28
2019-02-20T07:28:32.471Z,22.02
2019-02-20T07:31:01.644Z,17.17
2019-02-20T07:33:30.851Z,22.40
2019-02-20T07:35:59.989Z,17.67
2019-02-20T07:38:29.123Z,25.10
2019-02-20T07:40:58.259Z,20.12
2019-02-20T07:43:27.484Z,19.87
2019-02-20T07:45:56.613Z,18.60
2019-02-20T07:48:25.724Z,16.70
2019-02-20T07:50:54.958Z,16.80
2019-02-20T07:53:24.104Z,16.42
2019-02-20T07:55:53.324Z,16.20
2019-02-20T07:58:22.467Z,24.47
2019-02-20T08:00:51.622Z,26.27
2019-02-20T08:03:20.761Z,17.15
2019-02-20T08:05:49.891Z,20.08
2019-02-20T08:08:19.116Z,20.82
2019-02-20T08:10:48.236Z,15.98
2019-02-20T08:13:17.390Z,20.20
2019-02-20T08:15:47.729Z,21.65
2019-02-20T08:18:16.843Z,24.52
2019-02-20T08:20:45.984Z,26.42
2019-02-20T08:23:15.135Z,25.15
2019-02-20T08:25:44.383Z,15.25
2019-02-20T08:28:13.533Z,21.17
2019-02-20T08:30:42.691Z,24.25
2019-02-20T08:33:11.843Z,21.45
2019-02-20T08:35:40.993Z,21.12
2019-02-20T08:38:10.517Z,15.63
2019-02-20T08:40:39.716Z,24.18
2019-02-20T08:43:08.855Z,17.60
2019-02-20T08:45:37.984Z,26.37
2019-02-20T08:48:07.112Z,23.30
2019-02-20T08:50:36.277Z,22.17
2019-02-20T08:53:05.442Z,23.02
2019-02-20T08:55:34.593Z,21.68
2019-02-20T08:58:03.739Z,49.13
2019-02-20T09:00:32.930Z,22.60
2019-02-20T09:03:02.058Z,17.30
2019-02-20T09:05:31.226Z,24.80
2019-02-20T09:08:00.382Z,19.20
2019-02-20T09:10:29.536Z,21.50
2019-02-20T09:12:58.640Z,22.70
2019-02-20T09:15:27.857Z,20.80
2019-02-20T09:17:56.998Z,24.00
2019-02-20T09:20:26.230Z,21.50
2019-02-20T09:22:55.364Z,19.95
2019-02-20T09:25:24.521Z,21.45
2019-02-20T09:27:53.682Z,21.20
2019-02-20T09:30:28.456Z,22.85
2019-02-20T09:32:53.729Z,24.43
2019-02-20T09:35:22.858Z,17.57
2019-02-20T09:37:52.028Z,24.80
2019-02-20T09:40:21.153Z,22.93
2019-02-20T09:42:50.350Z,23.65
2019-02-20T09:45:19.465Z,18.77
2019-02-20T09:47:48.637Z,17.32
2019-02-20T09:50:17.943Z,22.15
2019-02-20T09:52:52.395Z,27.20
2019-02-20T09:55:17.986Z,16.93
2019-02-20T09:57:47.129Z,21.55
2019-02-20T10:00:16.434Z,17.75
2019-02-20T10:02:47.288Z,16.23
2019-02-20T10:05:16.596Z,14.33
2019-02-20T10:07:45.762Z,27.05
2019-02-20T10:10:14.891Z,25.25
2019-02-20T10:12:44.116Z,19.32
2019-02-20T10:15:13.693Z,11.53
2019-02-20T10:17:42.864Z,17.98
2019-02-20T10:20:12.008Z,14.93
2019-02-20T10:22:41.166Z,15.75
2019-02-20T10:25:10.424Z,13.98
2019-02-20T10:27:39.556Z,12.43
2019-02-20T10:30:12.159Z,16.12
2019-02-20T10:32:43.586Z,14.15
2019-02-20T10:35:13.473Z,15.05
2019-02-20T10:37:42.618Z,14.20
2019-02-20T10:40:11.977Z,15.38
2019-02-20T10:42:41.151Z,14.70
2019-02-20T10:45:10.343Z,14.60
2019-02-20T10:47:39.503Z,13.40
2019-02-20T10:50:09.120Z,14.50
2019-02-20T10:52:38.286Z,9.83
2019-02-20T10:55:07.457Z,12.25
2019-02-20T10:57:37.801Z,8.93
2019-02-20T11:00:23.450Z,9.28
2019-02-20T11:02:44.730Z,11.00
2019-02-20T11:05:13.860Z,11.35
2019-02-20T11:07:43.017Z,13.58
2019-02-20T11:10:12.162Z,11.48
2019-02-20T11:12:41.299Z,11.48
2019-02-20T11:15:10.668Z,10.98
2019-02-20T11:17:39.817Z,12.65
2019-02-20T11:20:09.174Z,11.78
2019-02-20T11:22:38.346Z,12.37
2019-02-20T11:25:08.825Z,13.40
2019-02-20T11:27:39.482Z,13.32
2019-02-20T11:30:11.528Z,9.68
2019-02-20T11:32:40.663Z,9.95
2019-02-20T11:35:09.977Z,14.65
2019-02-20T11:37:39.111Z,13.45
2019-02-20T11:40:08.903Z,21.75
2019-02-20T11:42:38.133Z,12.40
2019-02-20T11:45:07.973Z,8.63
2019-02-20T11:47:37.193Z,12.68
2019-02-20T11:50:07.857Z,15.10
2019-02-20T11:52:38.625Z,11.93
2019-02-20T11:55:08.010Z,12.43
2019-02-20T11:57:37.192Z,15.30
2019-02-20T12:00:08.277Z,10.82
2019-02-20T12:02:37.798Z,9.98
2019-02-20T12:05:07.047Z,13.38
2019-02-20T12:07:36.205Z,8.25
2019-02-20T12:10:06.173Z,11.30
2019-02-20T12:12:35.343Z,10.85
2019-02-20T12:15:06.259Z,10.03
2019-02-20T12:17:35.430Z,11.10
2019-02-20T12:20:05.028Z,8.50
2019-02-20T12:22:34.166Z,11.20
2019-02-20T12:25:03.338Z,9.48
2019-02-20T12:27:33.133Z,9.08
2019-02-20T12:30:02.405Z,10.35
2019-02-20T12:32:31.578Z,11.08
2019-02-20T12:35:00.744Z,12.47
2019-02-20T12:37:29.877Z,6.97
2019-02-20T12:39:59.018Z,12.65
2019-02-20T12:42:28.182Z,12.63
2019-02-20T12:44:58.651Z,10.60
2019-02-20T12:47:27.869Z,8.90
2019-02-20T12:49:57.018Z,9.85
2019-02-20T12:52:26.572Z,9.93
2019-02-20T12:54:55.782Z,9.18
2019-02-20T12:57:24.975Z,10.20
2019-02-20T12:59:54.191Z,11.00
2019-02-20T13:02:23.337Z,11.70
2019-02-20T13:04:52.569Z,9.63
2019-02-20T13:07:21.858Z,6.80
2019-02-20T13:09:51.217Z,9.00
2019-02-20T13:12:20.446Z,9.95
2019-02-20T13:14:49.579Z,8.98
2019-02-20T13:17:18.768Z,9.00
2019-02-20T13:19:47.901Z,10.55
2019-02-20T13:22:17.036Z,17.45
2019-02-20T13:24:46.181Z,7.45
2019-02-20T13:27:22.494Z,10.95
2019-02-20T13:29:46.228Z,8.58
2019-02-20T13:32:16.090Z,10.60
2019-02-20T13:34:45.338Z,12.28
2019-02-20T13:37:14.544Z,14.87
2019-02-20T13:39:43.717Z,10.08
2019-02-20T13:42:12.901Z,14.20
2019-02-20T13:44:42.065Z,13.88
2019-02-20T13:47:11.299Z,14.73
2019-02-20T13:49:40.452Z,13.30
2019-02-20T13:52:09.604Z,16.17
2019-02-20T13:54:38.774Z,12.15
2019-02-20T13:57:08.073Z,13.25
2019-02-20T13:59:37.429Z,14.47
2019-02-20T14:02:06.715Z,10.55
2019-02-20T14:04:36.749Z,11.90
2019-02-20T14:07:05.902Z,16.97
2019-02-20T14:09:35.097Z,15.23
2019-02-20T14:12:04.239Z,14.75
2019-02-20T14:14:33.817Z,13.30
2019-02-20T14:17:02.977Z,20.37
2019-02-20T14:19:32.146Z,16.35
2019-02-20T14:22:01.287Z,15.15
2019-02-20T14:24:30.474Z,14.90
2019-02-20T14:26:59.601Z,12.47
2019-02-20T14:29:28.803Z,12.37
2019-02-20T14:31:57.959Z,16.17
2019-02-20T14:34:27.224Z,18.23
2019-02-20T14:36:56.395Z,18.85
2019-02-20T14:39:25.590Z,17.95
2019-02-20T14:41:54.744Z,17.12
2019-02-20T14:44:23.898Z,18.17
2019-02-20T14:46:53.434Z,18.65
2019-02-20T14:49:22.583Z,16.40
2019-02-20T14:51:51.820Z,17.12
2019-02-20T14:54:20.980Z,16.05
2019-02-20T14:56:50.185Z,13.50
2019-02-20T14:59:19.330Z,14.78
2019-02-20T15:01:48.556Z,15.55
2019-02-20T15:04:17.716Z,17.05
2019-02-20T15:06:46.896Z,15.23
2019-02-20T15:09:16.107Z,16.20
2019-02-20T15:11:45.310Z,18.07
2019-02-20T15:14:16.076Z,18.07
2019-02-20T15:16:45.427Z,18.48
2019-02-20T15:19:14.721Z,17.57
2019-02-20T15:21:43.985Z,20.82
2019-02-20T15:24:13.178Z,16.55
2019-02-20T15:26:42.313Z,15.55
2019-02-20T15:29:13.519Z,13.55
2019-02-20T15:31:42.911Z,9.78
2019-02-20T15:34:12.281Z,15.32
2019-02-20T15:36:43.933Z,15.40
2019-02-20T15:39:12.784Z,16.77
2019-02-20T15:41:43.329Z,14.15
2019-02-20T15:44:12.570Z,15.43
2019-02-20T15:46:41.920Z,19.23
2019-02-20T15:49:11.115Z,20.50
2019-02-20T15:51:40.399Z,19.80
2019-02-20T15:54:09.744Z,16.12
2019-02-20T15:56:38.948Z,19.48
2019-02-20T15:59:08.508Z,18.02
2019-02-20T16:01:37.738Z,14.30
2019-02-20T16:04:07.340Z,17.80
2019-02-20T16:06:37.499Z,14.70
2019-02-20T16:09:07.520Z,17.92
2019-02-20T16:11:36.707Z,18.02
2019-02-20T16:14:05.899Z,20.85
2019-02-20T16:16:35.065Z,19.48
2019-02-20T16:19:04.631Z,19.70
2019-02-20T16:21:33.816Z,18.48
2019-02-20T16:24:04.043Z,13.62
2019-02-20T16:26:33.679Z,18.90
2019-02-20T16:29:02.939Z,16.67
2019-02-20T16:31:32.234Z,15.90
2019-02-20T16:34:01.603Z,16.35
2019-02-20T16:36:30.816Z,18.65
2019-02-20T16:39:00.158Z,17.07
2019-02-20T16:41:29.321Z,16.95
2019-02-20T16:43:58.537Z,19.82
2019-02-20T16:46:28.450Z,13.70
2019-02-20T16:48:57.757Z,18.37
2019-02-20T16:51:26.942Z,12.10
2019-02-20T16:53:56.153Z,15.60
2019-02-20T16:56:25.406Z,15.90
2019-02-20T16:58:54.724Z,15.15
2019-02-20T17:01:23.913Z,16.95
2019-02-20T17:03:53.314Z,14.33
2019-02-20T17:06:22.866Z,14.25
2019-02-20T17:08:52.298Z,16.10
2019-02-20T17:11:21.467Z,17.48
2019-02-20T17:13:50.816Z,14.33
2019-02-20T17:16:20.113Z,17.20
2019-02-20T17:18:49.368Z,17.07
2019-02-20T17:21:18.840Z,14.58
2019-02-20T17:23:48.028Z,14.15
2019-02-20T17:26:17.295Z,18.50
2019-02-20T17:28:46.478Z,16.82
2019-02-20T17:31:15.876Z,13.95
2019-02-20T17:33:45.334Z,14.50
2019-02-20T17:36:14.992Z,14.65
2019-02-20T17:38:44.233Z,14.87
2019-02-20T17:41:13.436Z,20.90
2019-02-20T17:43:42.649Z,17.23
2019-02-20T17:46:11.817Z,20.23
2019-02-20T17:48:41.171Z,18.37
2019-02-20T17:51:10.725Z,15.85
2019-02-20T17:53:40.069Z,16.45
2019-02-20T17:56:09.457Z,15.13
2019-02-20T17:58:38.785Z,17.40
2019-02-20T18:01:16.585Z,18.20
2019-02-20T18:03:45.765Z,13.08
2019-02-20T18:06:15.124Z,21.27
2019-02-20T18:08:44.388Z,13.75
2019-02-20T18:11:13.673Z,15.63
2019-02-20T18:13:43.087Z,17.65
2019-02-20T18:16:12.303Z,14.38
2019-02-20T18:18:41.612Z,16.30
2019-02-20T18:21:10.788Z,14.45
2019-02-20T18:23:40.197Z,14.60
2019-02-20T18:26:09.388Z,17.48
2019-02-20T18:28:38.966Z,17.82
2019-02-20T18:31:08.269Z,20.17
2019-02-20T18:33:37.624Z,20.50
2019-02-20T18:36:07.039Z,19.70
2019-02-20T18:38:36.362Z,13.83
2019-02-20T18:41:05.628Z,19.42
2019-02-20T18:43:34.943Z,15.78
2019-02-20T18:46:04.574Z,15.72
2019-02-20T18:48:33.839Z,19.75
2019-02-20T18:51:03.215Z,15.90
2019-02-20T18:53:32.854Z,16.93
2019-02-20T18:56:02.258Z,17.12
2019-02-20T18:58:34.021Z,15.78
2019-02-20T19:01:02.722Z,19.82
2019-02-20T19:03:32.198Z,15.78
2019-02-20T19:06:01.680Z,23.15
2019-02-20T19:08:42.264Z,20.97
2019-02-20T19:11:27.598Z,16.67
2019-02-20T19:14:14.582Z,21.60
2019-02-20T19:17:33.510Z,20.02
2019-02-20T19:20:17.654Z,22.25
2019-02-20T19:23:50.858Z,14.90
2019-02-20T19:26:37.747Z,17.85
2019-02-20T19:30:05.045Z,17.05
2019-02-20T19:33:22.765Z,18.87
2019-02-20T19:36:48.109Z,16.12
2019-02-20T19:39:56.781Z,18.75
2019-02-20T19:43:12.622Z,11.28
2019-02-20T19:46:03.497Z,21.85
2019-02-20T19:49:11.369Z,18.00
2019-02-20T19:52:21.022Z,12.73
2019-02-20T19:55:15.365Z,17.42
2019-02-20T19:58:11.457Z,19.50
2019-02-20T20:01:12.763Z,17.92
2019-02-20T20:04:06.194Z,17.50
2019-02-20T20:07:19.982Z,18.23
2019-02-20T20:10:29.067Z,16.65
2019-02-20T20:13:23.102Z,28.52
2019-02-20T20:16:19.012Z,28.67
2019-02-20T20:19:40.991Z,27.70
2019-02-20T20:22:58.359Z,23.42
2019-02-20T20:25:56.533Z,20.08
2019-02-20T20:29:08.198Z,30.48
2019-02-20T20:31:50.571Z,20.05
2019-02-20T20:35:00.687Z,18.87
2019-02-20T20:38:00.665Z,22.90
2019-02-20T20:41:09.060Z,27.22
2019-02-20T20:44:13.658Z,23.38
2019-02-20T20:47:04.256Z,19.87
2019-02-20T20:50:04.822Z,27.17
2019-02-20T20:53:12.594Z,32.25
2019-02-20T20:55:54.615Z,23.07
2019-02-20T20:59:17.535Z,22.37
2019-02-20T21:01:50.076Z,27.55
2019-02-20T21:04:48.135Z,20.43
2019-02-20T21:07:39.338Z,20.75
2019-02-20T21:10:46.500Z,26.57
2019-02-20T21:13:47.159Z,25.40
2019-02-20T21:17:04.054Z,28.92
2019-02-20T21:20:35.140Z,28.38
2019-02-20T21:23:42.127Z,28.32
2019-02-20T21:27:03.907Z,22.60
2019-02-20T21:29:59.088Z,23.25
2019-02-20T21:32:44.135Z,21.12
2019-02-20T21:38:43.099Z,21.25
2019-02-20T21:41:26.766Z,33.70
2019-02-20T21:44:22.070Z,22.13
2019-02-20T21:47:12.860Z,26.35
2019-02-20T21:50:26.205Z,28.77
2019-02-20T21:53:42.445Z,23.73
2019-02-20T21:59:38.948Z,29.30
2019-02-20T22:02:32.437Z,26.00
2019-02-20T22:05:45.895Z,33.50
2019-02-20T22:08:53.273Z,24.57
2019-02-20T22:11:45.841Z,25.20
2019-02-20T22:15:07.885Z,24.05
2019-02-20T22:18:01.780Z,27.50
2019-02-20T22:21:07.638Z,32.28
2019-02-20T22:26:42.815Z,36.50
2019-02-20T22:29:53.166Z,39.20
2019-02-20T22:33:10.709Z,38.17
2019-02-20T22:36:15.972Z,25.82
2019-02-20T22:39:23.270Z,37.23
2019-02-20T22:42:12.330Z,30.70
2019-02-20T22:45:17.268Z,32.73
2019-02-20T22:47:54.330Z,36.90
2019-02-20T22:51:02.500Z,41.40
2019-02-20T22:54:01.039Z,24.57
2019-02-20T22:57:14.132Z,33.78
2019-02-20T23:00:34.594Z,32.38
2019-02-20T23:03:14.427Z,31.97
2019-02-20T23:06:39.643Z,36.98
2019-02-20T23:10:07.835Z,29.12
2019-02-20T23:13:06.879Z,32.48
2019-02-20T23:15:36.051Z,38.42
2019-02-20T23:18:05.179Z,44.98
2019-02-20T23:20:34.397Z,33.75
2019-02-20T23:23:03.567Z,38.53
2019-02-20T23:25:32.725Z,38.63
2019-02-20T23:28:01.890Z,37.05
2019-02-20T23:30:31.214Z,38.75
2019-02-20T23:33:00.786Z,40.12
2019-02-20T23:35:30.075Z,38.63
2019-02-20T23:37:59.215Z,31.95
2019-02-20T23:40:28.376Z,32.28
2019-02-20T23:42:57.606Z,35.40
2019-02-20T23:45:26.766Z,29.92
2019-02-20T23:47:55.930Z,29.23
2019-02-20T23:50:25.065Z,36.13
2019-02-20T23:52:54.266Z,32.08
2019-02-20T23:55:23.400Z,27.42
2019-02-20T23:57:52.550Z,28.35
